sensor_id;sensor_type;location;lat;lon;timestamp;P1;durP1;ratioP1;P2;durP2;ratioP2
36371;SDS011;22398;51.346;12.372;2023-03-25T00:00:35;8.88;;;2.30;;
36371;SDS011;22398;51.346;12.372;2023-03-25T00:05:40;5.70;;;2.45;;
36371;SDS011;22398;51.346;12.372;2023-03-25T00:10:44;3.28;;;2.08;;
36371;SDS011;22398;51.346;12.372;2023-03-25T00:15:49;6.82;;;2.30;;
36371;SDS011;22398;51.346;12.372;2023-03-25T00:20:54;5.00;;;2.30;;
36371;SDS011;22398;51.346;12.372;2023-03-25T00:25:58;9.10;;;2.60;;
36371;SDS011;22398;51.346;12.372;2023-03-25T00:31:04;5.35;;;2.33;;
36371;SDS011;22398;51.346;12.372;2023-03-25T00:36:10;6.85;;;2.45;;
36371;SDS011;22398;51.346;12.372;2023-03-25T00:41:16;6.68;;;2.53;;
36371;SDS011;22398;51.346;12.372;2023-03-25T00:46:26;9.25;;;2.30;;
36371;SDS011;22398;51.346;12.372;2023-03-25T00:51:30;5.75;;;2.40;;
36371;SDS011;22398;51.346;12.372;2023-03-25T00:56:36;8.25;;;2.28;;
36371;SDS011;22398;51.346;12.372;2023-03-25T01:01:41;5.43;;;2.30;;
36371;SDS011;22398;51.346;12.372;2023-03-25T01:06:46;11.15;;;2.55;;
36371;SDS011;22398;51.346;12.372;2023-03-25T01:11:52;3.35;;;1.80;;
36371;SDS011;22398;51.346;12.372;2023-03-25T01:16:57;5.47;;;2.10;;
36371;SDS011;22398;51.346;12.372;2023-03-25T01:22:03;4.18;;;1.65;;
36371;SDS011;22398;51.346;12.372;2023-03-25T01:27:07;10.30;;;1.92;;
36371;SDS011;22398;51.346;12.372;2023-03-25T01:32:12;4.20;;;1.60;;
36371;SDS011;22398;51.346;12.372;2023-03-25T01:37:15;5.18;;;1.77;;
36371;SDS011;22398;51.346;12.372;2023-03-25T01:42:20;6.28;;;1.80;;
36371;SDS011;22398;51.346;12.372;2023-03-25T01:47:24;3.35;;;1.60;;
36371;SDS011;22398;51.346;12.372;2023-03-25T01:52:28;5.35;;;1.63;;
36371;SDS011;22398;51.346;12.372;2023-03-25T01:57:33;7.15;;;1.50;;
36371;SDS011;22398;51.346;12.372;2023-03-25T02:02:39;3.83;;;1.93;;
36371;SDS011;22398;51.346;12.372;2023-03-25T02:07:43;4.75;;;1.80;;
36371;SDS011;22398;51.346;12.372;2023-03-25T02:12:49;3.58;;;1.52;;
36371;SDS011;22398;51.346;12.372;2023-03-25T02:17:57;8.95;;;1.38;;
36371;SDS011;22398;51.346;12.372;2023-03-25T02:23:14;3.90;;;1.35;;
36371;SDS011;22398;51.346;12.372;2023-03-25T02:28:43;4.65;;;1.45;;
36371;SDS011;22398;51.346;12.372;2023-03-25T02:34:14;3.70;;;1.15;;
36371;SDS011;22398;51.346;12.372;2023-03-25T02:39:28;3.38;;;1.45;;
36371;SDS011;22398;51.346;12.372;2023-03-25T02:44:38;4.63;;;1.98;;
36371;SDS011;22398;51.346;12.372;2023-03-25T02:49:45;3.88;;;1.92;;
36371;SDS011;22398;51.346;12.372;2023-03-25T02:54:54;9.20;;;2.25;;
36371;SDS011;22398;51.346;12.372;2023-03-25T03:00:05;6.38;;;1.80;;
36371;SDS011;22398;51.346;12.372;2023-03-25T03:05:23;6.93;;;2.08;;
36371;SDS011;22398;51.346;12.372;2023-03-25T03:10:29;9.00;;;1.90;;
36371;SDS011;22398;51.346;12.372;2023-03-25T03:15:41;5.70;;;1.92;;
36371;SDS011;22398;51.346;12.372;2023-03-25T03:20:53;5.53;;;1.75;;
36371;SDS011;22398;51.346;12.372;2023-03-25T03:26:05;7.47;;;2.08;;
36371;SDS011;22398;51.346;12.372;2023-03-25T03:31:15;7.32;;;1.42;;
36371;SDS011;22398;51.346;12.372;2023-03-25T03:36:45;4.68;;;1.52;;
36371;SDS011;22398;51.346;12.372;2023-03-25T03:41:53;3.22;;;1.60;;
36371;SDS011;22398;51.346;12.372;2023-03-25T03:47:01;4.32;;;1.52;;
36371;SDS011;22398;51.346;12.372;2023-03-25T03:52:12;6.30;;;1.67;;
36371;SDS011;22398;51.346;12.372;2023-03-25T03:57:20;3.35;;;1.73;;
36371;SDS011;22398;51.346;12.372;2023-03-25T04:02:29;2.38;;;1.30;;
36371;SDS011;22398;51.346;12.372;2023-03-25T04:07:40;8.77;;;1.65;;
36371;SDS011;22398;51.346;12.372;2023-03-25T04:12:49;5.93;;;1.23;;
36371;SDS011;22398;51.346;12.372;2023-03-25T04:17:54;1.35;;;1.00;;
36371;SDS011;22398;51.346;12.372;2023-03-25T04:22:58;2.28;;;0.75;;
36371;SDS011;22398;51.346;12.372;2023-03-25T04:28:02;1.42;;;0.52;;
36371;SDS011;22398;51.346;12.372;2023-03-25T04:33:07;2.10;;;0.47;;
36371;SDS011;22398;51.346;12.372;2023-03-25T04:38:11;1.55;;;0.47;;
36371;SDS011;22398;51.346;12.372;2023-03-25T04:43:19;1.00;;;0.45;;
36371;SDS011;22398;51.346;12.372;2023-03-25T04:48:23;5.07;;;0.40;;
36371;SDS011;22398;51.346;12.372;2023-03-25T04:53:30;2.03;;;0.30;;
36371;SDS011;22398;51.346;12.372;2023-03-25T04:58:35;1.38;;;0.20;;
36371;SDS011;22398;51.346;12.372;2023-03-25T05:03:39;3.95;;;0.30;;
36371;SDS011;22398;51.346;12.372;2023-03-25T05:08:43;0.82;;;0.38;;
36371;SDS011;22398;51.346;12.372;2023-03-25T05:13:47;0.73;;;0.30;;
36371;SDS011;22398;51.346;12.372;2023-03-25T05:18:50;0.87;;;0.23;;
36371;SDS011;22398;51.346;12.372;2023-03-25T05:23:54;2.63;;;0.63;;
36371;SDS011;22398;51.346;12.372;2023-03-25T05:29:00;3.53;;;0.40;;
36371;SDS011;22398;51.346;12.372;2023-03-25T05:34:03;2.58;;;0.52;;
36371;SDS011;22398;51.346;12.372;2023-03-25T05:39:07;1.70;;;0.30;;
36371;SDS011;22398;51.346;12.372;2023-03-25T05:44:12;0.45;;;0.20;;
36371;SDS011;22398;51.346;12.372;2023-03-25T05:49:19;2.00;;;0.40;;
36371;SDS011;22398;51.346;12.372;2023-03-25T05:54:22;1.38;;;0.38;;
36371;SDS011;22398;51.346;12.372;2023-03-25T05:59:27;0.45;;;0.20;;
36371;SDS011;22398;51.346;12.372;2023-03-25T06:04:30;1.92;;;0.47;;
36371;SDS011;22398;51.346;12.372;2023-03-25T06:09:39;1.85;;;0.52;;
36371;SDS011;22398;51.346;12.372;2023-03-25T06:14:48;7.03;;;1.77;;
36371;SDS011;22398;51.346;12.372;2023-03-25T06:19:54;1.25;;;0.50;;
36371;SDS011;22398;51.346;12.372;2023-03-25T06:24:58;5.68;;;0.60;;
36371;SDS011;22398;51.346;12.372;2023-03-25T06:30:07;2.22;;;0.60;;
36371;SDS011;22398;51.346;12.372;2023-03-25T06:35:12;2.92;;;0.60;;
36371;SDS011;22398;51.346;12.372;2023-03-25T06:40:19;1.23;;;0.30;;
36371;SDS011;22398;51.346;12.372;2023-03-25T06:45:26;3.92;;;0.60;;
36371;SDS011;22398;51.346;12.372;2023-03-25T06:55:44;4.03;;;0.65;;
36371;SDS011;22398;51.346;12.372;2023-03-25T07:00:53;4.07;;;0.85;;
36371;SDS011;22398;51.346;12.372;2023-03-25T07:05:57;3.38;;;0.52;;
36371;SDS011;22398;51.346;12.372;2023-03-25T07:11:00;4.18;;;0.50;;
36371;SDS011;22398;51.346;12.372;2023-03-25T07:16:07;2.63;;;0.50;;
36371;SDS011;22398;51.346;12.372;2023-03-25T07:21:15;2.53;;;0.55;;
36371;SDS011;22398;51.346;12.372;2023-03-25T07:26:19;5.05;;;0.75;;
36371;SDS011;22398;51.346;12.372;2023-03-25T07:31:23;1.95;;;0.60;;
36371;SDS011;22398;51.346;12.372;2023-03-25T07:36:27;3.60;;;0.50;;
36371;SDS011;22398;51.346;12.372;2023-03-25T07:41:30;1.85;;;0.85;;
36371;SDS011;22398;51.346;12.372;2023-03-25T07:46:47;2.38;;;0.80;;
36371;SDS011;22398;51.346;12.372;2023-03-25T07:51:51;1.58;;;0.45;;
36371;SDS011;22398;51.346;12.372;2023-03-25T07:56:54;1.23;;;0.40;;
36371;SDS011;22398;51.346;12.372;2023-03-25T08:01:59;5.13;;;0.50;;
36371;SDS011;22398;51.346;12.372;2023-03-25T08:07:03;1.20;;;0.45;;
36371;SDS011;22398;51.346;12.372;2023-03-25T08:12:07;4.25;;;0.80;;
36371;SDS011;22398;51.346;12.372;2023-03-25T08:17:12;1.17;;;0.50;;
36371;SDS011;22398;51.346;12.372;2023-03-25T08:22:16;4.82;;;0.88;;
36371;SDS011;22398;51.346;12.372;2023-03-25T08:27:19;1.80;;;0.40;;
36371;SDS011;22398;51.346;12.372;2023-03-25T08:32:24;2.10;;;0.57;;
36371;SDS011;22398;51.346;12.372;2023-03-25T08:37:28;0.50;;;0.40;;
36371;SDS011;22398;51.346;12.372;2023-03-25T08:42:35;2.75;;;0.73;;
36371;SDS011;22398;51.346;12.372;2023-03-25T08:47:40;1.70;;;0.40;;
36371;SDS011;22398;51.346;12.372;2023-03-25T08:52:46;1.52;;;0.70;;
36371;SDS011;22398;51.346;12.372;2023-03-25T08:57:49;1.13;;;0.52;;
36371;SDS011;22398;51.346;12.372;2023-03-25T09:02:55;1.10;;;0.60;;
36371;SDS011;22398;51.346;12.372;2023-03-25T09:08:00;4.22;;;0.88;;
36371;SDS011;22398;51.346;12.372;2023-03-25T09:13:04;2.30;;;0.52;;
36371;SDS011;22398;51.346;12.372;2023-03-25T09:18:09;1.35;;;0.45;;
36371;SDS011;22398;51.346;12.372;2023-03-25T09:23:12;3.50;;;0.80;;
36371;SDS011;22398;51.346;12.372;2023-03-25T09:28:16;5.38;;;0.40;;
36371;SDS011;22398;51.346;12.372;2023-03-25T09:33:21;2.55;;;0.52;;
36371;SDS011;22398;51.346;12.372;2023-03-25T09:38:24;3.23;;;0.63;;
36371;SDS011;22398;51.346;12.372;2023-03-25T09:43:36;3.60;;;0.80;;
36371;SDS011;22398;51.346;12.372;2023-03-25T09:48:47;1.58;;;0.57;;
36371;SDS011;22398;51.346;12.372;2023-03-25T09:53:53;5.85;;;0.68;;
36371;SDS011;22398;51.346;12.372;2023-03-25T09:59:00;2.38;;;0.60;;
36371;SDS011;22398;51.346;12.372;2023-03-25T10:04:13;3.50;;;0.73;;
36371;SDS011;22398;51.346;12.372;2023-03-25T10:09:32;1.17;;;0.68;;
36371;SDS011;22398;51.346;12.372;2023-03-25T10:14:46;1.55;;;0.55;;
36371;SDS011;22398;51.346;12.372;2023-03-25T10:20:04;1.98;;;0.70;;
36371;SDS011;22398;51.346;12.372;2023-03-25T10:25:14;1.60;;;0.40;;
36371;SDS011;22398;51.346;12.372;2023-03-25T10:30:22;3.80;;;0.57;;
36371;SDS011;22398;51.346;12.372;2023-03-25T10:35:31;0.95;;;0.50;;
36371;SDS011;22398;51.346;12.372;2023-03-25T10:40:40;1.13;;;0.50;;
36371;SDS011;22398;51.346;12.372;2023-03-25T10:45:52;1.95;;;0.45;;
36371;SDS011;22398;51.346;12.372;2023-03-25T10:51:01;1.30;;;0.60;;
36371;SDS011;22398;51.346;12.372;2023-03-25T10:56:08;1.17;;;0.47;;
36371;SDS011;22398;51.346;12.372;2023-03-25T11:01:15;2.30;;;0.60;;
36371;SDS011;22398;51.346;12.372;2023-03-25T11:06:23;1.45;;;0.80;;
36371;SDS011;22398;51.346;12.372;2023-03-25T11:11:30;2.17;;;0.70;;
36371;SDS011;22398;51.346;12.372;2023-03-25T11:16:35;1.90;;;0.60;;
36371;SDS011;22398;51.346;12.372;2023-03-25T11:21:46;2.40;;;1.00;;
36371;SDS011;22398;51.346;12.372;2023-03-25T11:26:54;2.72;;;0.60;;
36371;SDS011;22398;51.346;12.372;2023-03-25T11:32:04;1.10;;;0.43;;
36371;SDS011;22398;51.346;12.372;2023-03-25T11:37:15;1.90;;;0.38;;
36371;SDS011;22398;51.346;12.372;2023-03-25T11:42:26;5.35;;;0.85;;
36371;SDS011;22398;51.346;12.372;2023-03-25T11:47:34;5.43;;;0.77;;
36371;SDS011;22398;51.346;12.372;2023-03-25T11:52:42;1.60;;;0.60;;
36371;SDS011;22398;51.346;12.372;2023-03-25T11:57:47;2.67;;;0.50;;
36371;SDS011;22398;51.346;12.372;2023-03-25T12:02:57;4.25;;;0.70;;
36371;SDS011;22398;51.346;12.372;2023-03-25T12:08:08;4.13;;;0.65;;
36371;SDS011;22398;51.346;12.372;2023-03-25T12:13:17;1.65;;;0.50;;
36371;SDS011;22398;51.346;12.372;2023-03-25T12:18:39;0.80;;;0.30;;
36371;SDS011;22398;51.346;12.372;2023-03-25T12:23:52;2.65;;;0.52;;
36371;SDS011;22398;51.346;12.372;2023-03-25T12:29:18;1.10;;;0.40;;
36371;SDS011;22398;51.346;12.372;2023-03-25T12:34:35;2.60;;;0.55;;
36371;SDS011;22398;51.346;12.372;2023-03-25T12:39:51;0.68;;;0.30;;
36371;SDS011;22398;51.346;12.372;2023-03-25T12:45:22;1.50;;;0.50;;
36371;SDS011;22398;51.346;12.372;2023-03-25T12:50:36;4.55;;;0.77;;
36371;SDS011;22398;51.346;12.372;2023-03-25T12:55:51;3.13;;;1.00;;
36371;SDS011;22398;51.346;12.372;2023-03-25T13:01:03;2.30;;;0.68;;
36371;SDS011;22398;51.346;12.372;2023-03-25T13:06:15;2.25;;;0.60;;
36371;SDS011;22398;51.346;12.372;2023-03-25T13:11:26;2.15;;;0.40;;
36371;SDS011;22398;51.346;12.372;2023-03-25T13:16:36;3.45;;;0.77;;
36371;SDS011;22398;51.346;12.372;2023-03-25T13:21:42;7.20;;;0.95;;
36371;SDS011;22398;51.346;12.372;2023-03-25T13:26:52;1.20;;;0.25;;
36371;SDS011;22398;51.346;12.372;2023-03-25T13:31:57;5.90;;;0.35;;
36371;SDS011;22398;51.346;12.372;2023-03-25T13:37:07;1.02;;;0.50;;
36371;SDS011;22398;51.346;12.372;2023-03-25T13:42:17;1.48;;;0.45;;
36371;SDS011;22398;51.346;12.372;2023-03-25T13:47:24;0.82;;;0.50;;
36371;SDS011;22398;51.346;12.372;2023-03-25T13:52:33;0.70;;;0.43;;
36371;SDS011;22398;51.346;12.372;2023-03-25T13:58:00;1.65;;;0.47;;
36371;SDS011;22398;51.346;12.372;2023-03-25T14:03:29;1.50;;;0.40;;
36371;SDS011;22398;51.346;12.372;2023-03-25T14:14:36;2.15;;;0.50;;
36371;SDS011;22398;51.346;12.372;2023-03-25T14:19:43;5.95;;;1.38;;
36371;SDS011;22398;51.346;12.372;2023-03-25T14:24:53;3.70;;;0.50;;
36371;SDS011;22398;51.346;12.372;2023-03-25T14:29:59;6.30;;;0.52;;
36371;SDS011;22398;51.346;12.372;2023-03-25T14:40:50;5.13;;;0.70;;
36371;SDS011;22398;51.346;12.372;2023-03-25T14:46:06;1.10;;;0.43;;
36371;SDS011;22398;51.346;12.372;2023-03-25T14:51:41;8.95;;;0.80;;
36371;SDS011;22398;51.346;12.372;2023-03-25T14:56:50;5.97;;;1.45;;
36371;SDS011;22398;51.346;12.372;2023-03-25T15:02:01;4.15;;;1.05;;
36371;SDS011;22398;51.346;12.372;2023-03-25T15:07:13;4.03;;;2.20;;
36371;SDS011;22398;51.346;12.372;2023-03-25T15:12:22;3.22;;;1.08;;
36371;SDS011;22398;51.346;12.372;2023-03-25T15:17:45;3.35;;;0.80;;
36371;SDS011;22398;51.346;12.372;2023-03-25T15:34:24;1.73;;;0.63;;
36371;SDS011;22398;51.346;12.372;2023-03-25T15:39:52;3.88;;;0.88;;
36371;SDS011;22398;51.346;12.372;2023-03-25T15:45:28;1.50;;;0.70;;
36371;SDS011;22398;51.346;12.372;2023-03-25T15:51:00;5.07;;;0.90;;
36371;SDS011;22398;51.346;12.372;2023-03-25T15:56:16;1.23;;;0.47;;
36371;SDS011;22398;51.346;12.372;2023-03-25T16:01:25;1.80;;;0.70;;
36371;SDS011;22398;51.346;12.372;2023-03-25T16:06:34;1.00;;;0.50;;
36371;SDS011;22398;51.346;12.372;2023-03-25T16:11:43;2.45;;;1.00;;
36371;SDS011;22398;51.346;12.372;2023-03-25T16:16:48;4.10;;;0.85;;
36371;SDS011;22398;51.346;12.372;2023-03-25T16:21:55;2.53;;;0.65;;
36371;SDS011;22398;51.346;12.372;2023-03-25T16:27:11;0.68;;;0.40;;
36371;SDS011;22398;51.346;12.372;2023-03-25T16:32:21;3.10;;;1.17;;
36371;SDS011;22398;51.346;12.372;2023-03-25T16:37:27;3.90;;;1.05;;
36371;SDS011;22398;51.346;12.372;2023-03-25T16:42:34;1.30;;;0.52;;
36371;SDS011;22398;51.346;12.372;2023-03-25T16:47:37;6.20;;;0.90;;
36371;SDS011;22398;51.346;12.372;2023-03-25T16:52:43;2.38;;;0.60;;
36371;SDS011;22398;51.346;12.372;2023-03-25T16:57:48;5.50;;;1.08;;
36371;SDS011;22398;51.346;12.372;2023-03-25T17:02:52;5.60;;;1.38;;
36371;SDS011;22398;51.346;12.372;2023-03-25T17:07:59;3.75;;;1.70;;
36371;SDS011;22398;51.346;12.372;2023-03-25T17:13:06;5.60;;;0.90;;
36371;SDS011;22398;51.346;12.372;2023-03-25T17:18:12;3.65;;;1.00;;
36371;SDS011;22398;51.346;12.372;2023-03-25T17:23:20;2.90;;;0.80;;
36371;SDS011;22398;51.346;12.372;2023-03-25T17:28:35;2.92;;;0.80;;
36371;SDS011;22398;51.346;12.372;2023-03-25T17:33:40;10.05;;;0.95;;
36371;SDS011;22398;51.346;12.372;2023-03-25T17:38:52;5.20;;;1.10;;
36371;SDS011;22398;51.346;12.372;2023-03-25T17:43:56;3.67;;;1.10;;
36371;SDS011;22398;51.346;12.372;2023-03-25T17:48:59;4.50;;;1.10;;
36371;SDS011;22398;51.346;12.372;2023-03-25T17:54:04;2.35;;;1.10;;
36371;SDS011;22398;51.346;12.372;2023-03-25T17:59:11;2.72;;;0.90;;
36371;SDS011;22398;51.346;12.372;2023-03-25T18:04:17;2.15;;;0.90;;
36371;SDS011;22398;51.346;12.372;2023-03-25T18:09:24;3.33;;;1.15;;
36371;SDS011;22398;51.346;12.372;2023-03-25T18:14:28;1.35;;;0.70;;
36371;SDS011;22398;51.346;12.372;2023-03-25T18:19:32;3.10;;;1.10;;
36371;SDS011;22398;51.346;12.372;2023-03-25T18:24:37;3.30;;;1.05;;
36371;SDS011;22398;51.346;12.372;2023-03-25T18:29:41;3.00;;;0.88;;
36371;SDS011;22398;51.346;12.372;2023-03-25T18:34:44;5.00;;;0.95;;
36371;SDS011;22398;51.346;12.372;2023-03-25T18:39:49;4.63;;;0.80;;
36371;SDS011;22398;51.346;12.372;2023-03-25T18:44:53;5.38;;;1.63;;
36371;SDS011;22398;51.346;12.372;2023-03-25T18:49:57;5.15;;;1.10;;
36371;SDS011;22398;51.346;12.372;2023-03-25T18:55:02;3.17;;;1.00;;
36371;SDS011;22398;51.346;12.372;2023-03-25T19:00:12;6.00;;;1.40;;
36371;SDS011;22398;51.346;12.372;2023-03-25T19:05:22;3.73;;;0.87;;
36371;SDS011;22398;51.346;12.372;2023-03-25T19:10:28;6.20;;;0.97;;
36371;SDS011;22398;51.346;12.372;2023-03-25T19:15:34;1.95;;;0.93;;
36371;SDS011;22398;51.346;12.372;2023-03-25T19:20:38;3.38;;;0.88;;
36371;SDS011;22398;51.346;12.372;2023-03-25T19:25:43;3.65;;;0.82;;
36371;SDS011;22398;51.346;12.372;2023-03-25T19:30:49;4.82;;;0.90;;
36371;SDS011;22398;51.346;12.372;2023-03-25T19:35:55;3.63;;;1.27;;
36371;SDS011;22398;51.346;12.372;2023-03-25T19:41:02;3.50;;;0.82;;
36371;SDS011;22398;51.346;12.372;2023-03-25T19:46:08;4.28;;;1.17;;
36371;SDS011;22398;51.346;12.372;2023-03-25T19:51:12;3.08;;;1.05;;
36371;SDS011;22398;51.346;12.372;2023-03-25T19:56:16;2.20;;;1.00;;
36371;SDS011;22398;51.346;12.372;2023-03-25T20:01:19;2.10;;;0.90;;
36371;SDS011;22398;51.346;12.372;2023-03-25T20:06:23;0.85;;;0.60;;
36371;SDS011;22398;51.346;12.372;2023-03-25T20:11:28;3.00;;;0.60;;
36371;SDS011;22398;51.346;12.372;2023-03-25T20:16:31;2.47;;;1.00;;
36371;SDS011;22398;51.346;12.372;2023-03-25T20:21:35;2.97;;;0.60;;
36371;SDS011;22398;51.346;12.372;2023-03-25T20:26:40;5.00;;;1.08;;
36371;SDS011;22398;51.346;12.372;2023-03-25T20:31:43;2.97;;;1.23;;
36371;SDS011;22398;51.346;12.372;2023-03-25T20:36:46;7.75;;;1.20;;
36371;SDS011;22398;51.346;12.372;2023-03-25T20:41:51;4.20;;;1.08;;
36371;SDS011;22398;51.346;12.372;2023-03-25T20:46:55;5.70;;;0.70;;
36371;SDS011;22398;51.346;12.372;2023-03-25T20:51:59;7.03;;;1.33;;
36371;SDS011;22398;51.346;12.372;2023-03-25T20:57:04;2.17;;;0.93;;
36371;SDS011;22398;51.346;12.372;2023-03-25T21:02:08;5.43;;;0.95;;
36371;SDS011;22398;51.346;12.372;2023-03-25T21:07:13;4.90;;;1.20;;
36371;SDS011;22398;51.346;12.372;2023-03-25T21:12:21;4.90;;;1.35;;
36371;SDS011;22398;51.346;12.372;2023-03-25T21:17:41;9.75;;;1.33;;
36371;SDS011;22398;51.346;12.372;2023-03-25T21:22:45;7.28;;;1.17;;
36371;SDS011;22398;51.346;12.372;2023-03-25T21:27:49;3.63;;;1.00;;
36371;SDS011;22398;51.346;12.372;2023-03-25T21:32:53;2.53;;;1.10;;
36371;SDS011;22398;51.346;12.372;2023-03-25T21:37:57;3.95;;;0.90;;
36371;SDS011;22398;51.346;12.372;2023-03-25T21:43:02;4.15;;;1.00;;
36371;SDS011;22398;51.346;12.372;2023-03-25T21:48:07;2.45;;;0.90;;
36371;SDS011;22398;51.346;12.372;2023-03-25T21:53:10;6.43;;;1.75;;
36371;SDS011;22398;51.346;12.372;2023-03-25T21:58:20;3.85;;;0.55;;
36371;SDS011;22398;51.346;12.372;2023-03-25T22:03:24;1.98;;;0.70;;
36371;SDS011;22398;51.346;12.372;2023-03-25T22:08:30;4.55;;;1.00;;
36371;SDS011;22398;51.346;12.372;2023-03-25T22:13:35;5.25;;;0.90;;
36371;SDS011;22398;51.346;12.372;2023-03-25T22:18:39;1.50;;;0.70;;
36371;SDS011;22398;51.346;12.372;2023-03-25T22:23:44;2.42;;;1.00;;
36371;SDS011;22398;51.346;12.372;2023-03-25T22:28:52;7.57;;;0.95;;
36371;SDS011;22398;51.346;12.372;2023-03-25T22:33:57;4.32;;;0.95;;
36371;SDS011;22398;51.346;12.372;2023-03-25T22:39:04;5.05;;;1.75;;
36371;SDS011;22398;51.346;12.372;2023-03-25T22:44:09;3.08;;;1.17;;
36371;SDS011;22398;51.346;12.372;2023-03-25T22:49:14;3.35;;;1.35;;
36371;SDS011;22398;51.346;12.372;2023-03-25T22:54:18;3.67;;;1.40;;
36371;SDS011;22398;51.346;12.372;2023-03-25T22:59:23;4.57;;;1.08;;
36371;SDS011;22398;51.346;12.372;2023-03-25T23:04:26;4.35;;;0.88;;
36371;SDS011;22398;51.346;12.372;2023-03-25T23:09:30;2.08;;;1.02;;
36371;SDS011;22398;51.346;12.372;2023-03-25T23:14:47;3.47;;;0.82;;
36371;SDS011;22398;51.346;12.372;2023-03-25T23:19:52;6.97;;;1.15;;
36371;SDS011;22398;51.346;12.372;2023-03-25T23:24:56;7.05;;;1.40;;
36371;SDS011;22398;51.346;12.372;2023-03-25T23:30:02;3.25;;;1.30;;
36371;SDS011;22398;51.346;12.372;2023-03-25T23:35:07;2.75;;;1.05;;
36371;SDS011;22398;51.346;12.372;2023-03-25T23:40:11;4.25;;;1.75;;
36371;SDS011;22398;51.346;12.372;2023-03-25T23:45:16;5.63;;;1.85;;
36371;SDS011;22398;51.346;12.372;2023-03-25T23:50:20;4.13;;;1.38;;
36371;SDS011;22398;51.346;12.372;2023-03-25T23:55:23;5.82;;;0.77;;
